createdAt,value
2022-08-29T00:02:22.188Z,66.10
2022-08-29T00:04:50.035Z,66.10
2022-08-29T00:07:17.864Z,66.10
2022-08-29T00:09:45.612Z,66.20
2022-08-29T00:12:14.666Z,66.20
2022-08-29T00:14:42.459Z,66.10
2022-08-29T00:17:10.290Z,66.10
2022-08-29T00:19:38.014Z,66.10
2022-08-29T00:22:06.046Z,66.10
2022-08-29T00:24:33.855Z,66.20
2022-08-29T00:27:01.851Z,66.10
2022-08-29T00:29:30.925Z,66.10
2022-08-29T00:31:58.704Z,66.10
2022-08-29T00:34:26.525Z,66.20
2022-08-29T00:36:54.873Z,66.20
2022-08-29T00:39:23.145Z,66.20
2022-08-29T00:41:51.920Z,66.20
2022-08-29T00:44:19.702Z,66.20
2022-08-29T00:47:00.263Z,66.20
2022-08-29T00:49:36.645Z,66.20
2022-08-29T00:52:08.897Z,66.20
2022-08-29T00:54:38.155Z,66.20
2022-08-29T00:57:07.239Z,66.20
2022-08-29T00:59:38.184Z,66.20
2022-08-29T01:02:11.796Z,66.20
2022-08-29T01:04:40.477Z,66.20
2022-08-29T01:07:08.853Z,66.20
2022-08-29T01:09:38.365Z,66.20
2022-08-29T01:12:15.705Z,66.30
2022-08-29T01:14:47.746Z,66.20
2022-08-29T01:17:21.932Z,66.20
2022-08-29T01:19:55.737Z,66.30
2022-08-29T01:22:34.962Z,66.30
2022-08-29T01:25:08.260Z,66.30
2022-08-29T01:27:39.356Z,66.30
2022-08-29T01:30:08.860Z,66.30
2022-08-29T01:32:36.668Z,66.30
2022-08-29T01:35:05.502Z,66.30
2022-08-29T01:37:34.784Z,66.30
2022-08-29T01:40:04.505Z,66.30
2022-08-29T01:42:36.473Z,67.10
2022-08-29T01:45:09.677Z,66.30
2022-08-29T01:47:38.894Z,66.30
2022-08-29T01:50:10.163Z,66.30
2022-08-29T01:52:37.979Z,66.30
2022-08-29T01:55:07.830Z,66.30
2022-08-29T01:57:38.049Z,66.30
2022-08-29T02:00:08.905Z,66.30
2022-08-29T02:02:38.294Z,66.30
2022-08-29T02:05:07.327Z,66.30
2022-08-29T02:07:35.095Z,66.30
2022-08-29T02:10:02.968Z,66.40
2022-08-29T02:12:32.840Z,66.30
2022-08-29T02:15:01.128Z,66.40
2022-08-29T02:17:29.624Z,66.40
2022-08-29T02:19:57.345Z,66.40
2022-08-29T02:22:25.762Z,66.40
2022-08-29T02:24:53.469Z,66.40
2022-08-29T02:27:21.213Z,66.40
2022-08-29T02:29:50.369Z,66.40
2022-08-29T02:32:18.122Z,66.40
2022-08-29T02:34:47.724Z,66.40
2022-08-29T02:37:16.733Z,66.40
2022-08-29T02:39:44.545Z,66.40
2022-08-29T02:42:12.269Z,66.40
2022-08-29T02:44:40.063Z,66.40
2022-08-29T02:47:09.557Z,66.40
2022-08-29T02:49:38.077Z,66.40
2022-08-29T02:52:08.423Z,66.40
2022-08-29T02:54:36.458Z,66.40
2022-08-29T02:57:04.608Z,66.40
2022-08-29T02:59:32.368Z,66.40
2022-08-29T03:02:00.158Z,66.40
2022-08-29T03:04:29.428Z,66.40
2022-08-29T03:06:57.614Z,66.40
2022-08-29T03:09:25.342Z,66.40
2022-08-29T03:11:56.025Z,66.40
2022-08-29T03:14:23.945Z,66.40
2022-08-29T03:16:52.232Z,66.40
2022-08-29T03:19:20.214Z,66.40
2022-08-29T03:21:49.531Z,66.40
2022-08-29T03:24:17.282Z,66.40
2022-08-29T03:26:56.603Z,66.40
2022-08-29T03:29:25.478Z,66.40
2022-08-29T03:31:53.641Z,66.40
2022-08-29T03:34:21.611Z,66.40
2022-08-29T03:36:50.653Z,66.40
2022-08-29T03:39:18.435Z,66.40
2022-08-29T03:41:46.429Z,66.40
2022-08-29T03:44:14.412Z,66.40
2022-08-29T03:46:42.402Z,66.40
2022-08-29T03:49:10.932Z,66.40
2022-08-29T03:51:40.310Z,66.40
2022-08-29T03:54:09.721Z,66.40
2022-08-29T03:56:37.461Z,66.40
2022-08-29T03:59:05.228Z,66.40
2022-08-29T04:01:33.124Z,66.40
2022-08-29T04:04:01.311Z,66.40
2022-08-29T04:06:29.264Z,66.40
2022-08-29T04:08:58.914Z,66.40
2022-08-29T04:11:29.754Z,66.40
2022-08-29T04:13:57.467Z,66.40
2022-08-29T04:16:30.399Z,66.30
2022-08-29T04:18:59.821Z,66.40
2022-08-29T04:21:27.629Z,66.30
2022-08-29T04:23:55.467Z,66.30
2022-08-29T04:26:38.693Z,66.30
2022-08-29T04:29:10.007Z,66.30
2022-08-29T04:31:38.874Z,67.10
2022-08-29T04:34:08.414Z,66.30
2022-08-29T04:36:37.284Z,66.20
2022-08-29T04:39:07.024Z,66.20
2022-08-29T04:41:35.237Z,66.20
2022-08-29T04:44:03.254Z,66.20
2022-08-29T04:46:32.460Z,66.20
2022-08-29T04:49:04.058Z,66.10
2022-08-29T04:51:34.132Z,66.10
2022-08-29T04:54:02.278Z,66.10
2022-08-29T04:56:30.085Z,66.10
2022-08-29T04:58:57.818Z,66.10
2022-08-29T05:01:27.236Z,66.00
2022-08-29T05:03:57.875Z,66.00
2022-08-29T05:06:25.731Z,66.00
2022-08-29T05:08:59.361Z,65.90
2022-08-29T05:11:29.758Z,65.90
2022-08-29T05:13:58.533Z,65.90
2022-08-29T05:16:26.281Z,65.90
2022-08-29T05:18:53.979Z,65.80
2022-08-29T05:21:27.565Z,65.90
2022-08-29T05:23:56.402Z,65.80
2022-08-29T05:26:24.967Z,65.80
2022-08-29T05:28:52.748Z,65.70
2022-08-29T05:31:22.143Z,65.70
2022-08-29T05:33:50.175Z,65.70
2022-08-29T05:36:17.917Z,65.70
2022-08-29T05:38:47.220Z,65.70
2022-08-29T05:41:15.281Z,65.70
2022-08-29T05:43:43.098Z,65.60
2022-08-29T05:46:11.585Z,65.60
2022-08-29T05:48:41.352Z,65.60
2022-08-29T05:51:15.217Z,65.60
2022-08-29T05:53:43.004Z,65.60
2022-08-29T05:56:12.752Z,65.50
2022-08-29T05:58:40.503Z,65.50
2022-08-29T06:01:08.218Z,65.60
2022-08-29T06:03:36.895Z,65.60
2022-08-29T06:06:04.792Z,65.60
2022-08-29T06:08:32.509Z,65.60
2022-08-29T06:11:00.249Z,65.60
2022-08-29T06:13:29.309Z,65.60
2022-08-29T06:15:57.300Z,65.60
2022-08-29T06:18:29.849Z,65.50
2022-08-29T06:21:05.498Z,65.50
2022-08-29T06:23:33.483Z,65.50
2022-08-29T06:26:01.360Z,65.40
2022-08-29T06:28:31.126Z,65.50
2022-08-29T06:31:05.330Z,65.40
2022-08-29T06:33:33.125Z,65.40
2022-08-29T06:36:00.865Z,65.40
2022-08-29T06:38:28.630Z,65.30
2022-08-29T06:40:56.371Z,65.30
2022-08-29T06:43:24.108Z,65.30
2022-08-29T06:45:53.546Z,65.30
2022-08-29T06:48:21.438Z,65.20
2022-08-29T06:50:49.184Z,65.30
2022-08-29T06:53:27.506Z,65.20
2022-08-29T06:56:05.269Z,65.20
2022-08-29T06:58:33.390Z,65.30
2022-08-29T07:01:06.685Z,65.20
2022-08-29T07:03:34.729Z,65.20
2022-08-29T07:06:02.542Z,65.20
2022-08-29T07:08:30.261Z,65.30
2022-08-29T07:10:58.020Z,65.20
2022-08-29T07:13:25.743Z,65.30
2022-08-29T07:15:53.814Z,65.30
2022-08-29T07:18:22.886Z,65.30
2022-08-29T07:20:51.350Z,65.30
2022-08-29T07:23:19.092Z,65.40
2022-08-29T07:25:46.816Z,65.40
2022-08-29T07:28:14.678Z,65.50
2022-08-29T07:30:43.173Z,65.50
2022-08-29T07:33:10.984Z,65.50
2022-08-29T07:35:40.089Z,65.60
2022-08-29T07:38:07.861Z,65.60
2022-08-29T07:40:35.669Z,65.60
2022-08-29T07:43:04.541Z,65.60
2022-08-29T07:45:32.290Z,65.70
2022-08-29T07:48:00.030Z,65.70
2022-08-29T07:50:27.769Z,65.70
2022-08-29T07:52:58.053Z,65.70
2022-08-29T07:55:25.787Z,65.70
2022-08-29T07:57:54.340Z,65.70
2022-08-29T08:00:22.161Z,65.70
2022-08-29T08:02:49.939Z,65.70
2022-08-29T08:05:17.781Z,65.80
2022-08-29T08:07:47.325Z,65.80
2022-08-29T08:10:20.372Z,65.70
2022-08-29T08:12:51.360Z,65.70
2022-08-29T08:15:21.804Z,65.70
2022-08-29T08:17:49.701Z,65.70
2022-08-29T08:20:17.523Z,65.60
2022-08-29T08:22:45.270Z,65.60
2022-08-29T08:25:14.152Z,65.60
2022-08-29T08:27:43.746Z,65.60
2022-08-29T08:30:12.699Z,65.60
2022-08-29T08:32:45.596Z,65.60
2022-08-29T08:35:16.049Z,65.50
2022-08-29T08:37:44.353Z,65.60
2022-08-29T08:40:19.634Z,65.50
2022-08-29T08:42:50.495Z,65.50
2022-08-29T08:45:20.268Z,65.40
2022-08-29T08:47:52.586Z,65.40
2022-08-29T08:50:25.164Z,65.50
2022-08-29T08:52:58.649Z,65.50
2022-08-29T08:55:41.618Z,65.50
2022-08-29T08:58:28.997Z,65.50
2022-08-29T09:01:00.559Z,65.50
2022-08-29T09:03:52.163Z,65.40
2022-08-29T09:06:34.252Z,65.40
2022-08-29T09:09:10.306Z,66.30
2022-08-29T09:11:46.180Z,65.40
2022-08-29T09:14:26.619Z,65.50
2022-08-29T09:16:59.554Z,65.40
2022-08-29T09:19:27.790Z,65.40
2022-08-29T09:22:00.353Z,65.40
2022-08-29T09:24:33.875Z,65.40
2022-08-29T09:27:01.631Z,65.40
2022-08-29T09:29:31.889Z,65.40
2022-08-29T09:32:11.405Z,65.30
2022-08-29T09:35:06.829Z,65.30
2022-08-29T09:37:32.426Z,65.30
2022-08-29T09:40:05.359Z,65.30
2022-08-29T09:42:36.076Z,65.30
2022-08-29T09:45:16.047Z,65.30
2022-08-29T09:47:43.854Z,65.30
2022-08-29T09:50:19.880Z,65.20
2022-08-29T09:52:53.780Z,65.20
2022-08-29T09:55:28.095Z,65.20
2022-08-29T09:58:00.275Z,65.10
2022-08-29T10:00:35.104Z,65.20
2022-08-29T10:03:05.367Z,65.10
2022-08-29T10:05:40.537Z,65.10
2022-08-29T10:08:24.676Z,65.10
2022-08-29T10:10:55.715Z,65.10
2022-08-29T10:13:28.911Z,65.10
2022-08-29T10:16:06.745Z,65.00
2022-08-29T10:18:44.531Z,65.00
2022-08-29T10:21:20.269Z,65.00
2022-08-29T10:24:25.740Z,65.00
2022-08-29T10:27:01.485Z,65.00
2022-08-29T10:29:47.948Z,65.00
2022-08-29T10:32:31.030Z,65.00
2022-08-29T10:35:07.500Z,65.10
2022-08-29T10:37:47.477Z,65.10
2022-08-29T10:40:21.407Z,65.00
2022-08-29T10:42:52.065Z,65.10
2022-08-29T10:45:30.597Z,64.90
2022-08-29T10:48:06.751Z,65.00
2022-08-29T10:50:44.506Z,65.80
2022-08-29T10:53:17.972Z,65.10
2022-08-29T10:55:57.890Z,64.90
2022-08-29T10:58:46.928Z,65.00
2022-08-29T11:01:22.160Z,65.10
2022-08-29T11:04:05.375Z,65.10
2022-08-29T11:09:15.529Z,65.00
2022-08-29T11:12:00.574Z,65.10
2022-08-29T11:14:35.261Z,65.20
2022-08-29T11:17:08.456Z,65.20
2022-08-29T11:19:47.161Z,65.40
2022-08-29T11:22:19.083Z,65.30
2022-08-29T11:24:54.914Z,65.40
2022-08-29T11:27:31.461Z,65.40
2022-08-29T11:30:03.369Z,65.40
2022-08-29T11:32:39.501Z,65.40
2022-08-29T11:35:17.953Z,65.30
2022-08-29T11:38:10.174Z,65.40
2022-08-29T11:43:48.891Z,65.30
2022-08-29T11:46:25.671Z,65.20
2022-08-29T11:49:13.431Z,65.20
2022-08-29T11:51:43.646Z,65.10
2022-08-29T11:54:54.150Z,65.90
2022-08-29T11:58:04.636Z,65.10
2022-08-29T12:00:47.304Z,65.00
2022-08-29T12:03:54.693Z,65.00
2022-08-29T12:06:42.870Z,64.90
2022-08-29T12:09:41.215Z,64.90
2022-08-29T12:12:35.749Z,64.80
2022-08-29T12:15:23.505Z,65.70
2022-08-29T12:18:01.829Z,64.80
2022-08-29T12:20:42.058Z,64.70
2022-08-29T12:23:21.921Z,64.80
2022-08-29T12:26:09.656Z,64.70
2022-08-29T12:28:46.249Z,64.70
2022-08-29T12:31:31.757Z,64.70
2022-08-29T12:34:24.149Z,64.70
2022-08-29T12:37:30.823Z,64.60
2022-08-29T12:40:17.778Z,64.60
2022-08-29T12:42:57.922Z,64.50
2022-08-29T12:45:30.145Z,64.50
2022-08-29T12:48:00.963Z,64.50
2022-08-29T12:50:35.632Z,64.50
2022-08-29T12:53:05.487Z,64.50
2022-08-29T12:55:39.745Z,64.50
2022-08-29T12:58:08.348Z,64.40
2022-08-29T13:00:36.638Z,64.50
2022-08-29T13:03:09.503Z,64.50
2022-08-29T13:05:44.254Z,64.40
2022-08-29T13:08:15.797Z,64.40
2022-08-29T13:10:56.016Z,64.40
2022-08-29T13:13:25.825Z,64.40
2022-08-29T13:15:55.920Z,64.20
2022-08-29T13:18:24.616Z,64.20
2022-08-29T13:21:11.871Z,64.30
2022-08-29T13:23:45.689Z,64.30
2022-08-29T13:26:22.233Z,64.30
2022-08-29T13:28:52.383Z,64.20
2022-08-29T13:31:29.312Z,64.30
2022-08-29T13:34:29.463Z,64.20
2022-08-29T13:37:02.087Z,64.30
2022-08-29T13:39:41.817Z,64.20
2022-08-29T13:42:32.742Z,64.30
2022-08-29T13:45:20.731Z,64.30
2022-08-29T13:48:14.397Z,64.20
2022-08-29T13:50:42.354Z,64.20
2022-08-29T13:53:11.721Z,64.20
2022-08-29T13:55:42.660Z,64.20
2022-08-29T13:58:14.789Z,64.20
2022-08-29T14:00:43.633Z,64.20
2022-08-29T14:03:12.275Z,64.20
2022-08-29T14:05:40.243Z,64.20
2022-08-29T14:08:08.089Z,64.20
2022-08-29T14:10:37.165Z,64.20
2022-08-29T14:13:05.261Z,64.20
2022-08-29T14:15:33.620Z,64.10
2022-08-29T14:18:01.444Z,64.10
2022-08-29T14:20:29.173Z,64.10
2022-08-29T14:22:56.893Z,64.10
2022-08-29T14:25:24.608Z,64.10
2022-08-29T14:27:54.793Z,64.10
2022-08-29T14:30:24.651Z,64.00
2022-08-29T14:32:52.717Z,64.00
2022-08-29T14:35:26.192Z,64.00
2022-08-29T14:38:00.333Z,64.00
2022-08-29T14:40:28.878Z,64.00
2022-08-29T14:42:58.462Z,63.90
2022-08-29T14:45:26.852Z,64.00
2022-08-29T14:47:54.821Z,64.00
2022-08-29T14:50:23.468Z,64.00
2022-08-29T14:52:51.329Z,64.00
2022-08-29T14:55:19.553Z,63.80
2022-08-29T14:57:47.356Z,63.90
2022-08-29T15:00:19.387Z,63.90
2022-08-29T15:02:47.346Z,63.90
2022-08-29T15:05:15.160Z,63.80
2022-08-29T15:07:43.372Z,63.80
2022-08-29T15:10:12.385Z,63.80
2022-08-29T15:12:40.489Z,63.80
2022-08-29T15:15:09.280Z,63.80
2022-08-29T15:17:38.739Z,63.70
2022-08-29T15:22:55.885Z,63.70
2022-08-29T15:25:24.069Z,63.80
2022-08-29T15:27:51.857Z,63.70
2022-08-29T15:30:21.893Z,63.70
2022-08-29T15:32:52.118Z,63.70
2022-08-29T15:35:20.185Z,63.80
2022-08-29T15:37:48.014Z,63.70
2022-08-29T15:40:15.925Z,63.70
2022-08-29T15:42:43.743Z,63.60
2022-08-29T15:45:12.326Z,63.20
2022-08-29T15:47:46.166Z,62.90
2022-08-29T15:50:15.788Z,62.60
2022-08-29T15:52:43.563Z,62.40
2022-08-29T15:55:12.620Z,61.70
2022-08-29T15:57:51.539Z,61.10
2022-08-29T16:00:30.304Z,60.30
2022-08-29T16:03:00.766Z,59.90
2022-08-29T16:05:29.939Z,59.70
2022-08-29T16:07:57.994Z,59.60
2022-08-29T16:10:26.066Z,59.60
2022-08-29T16:12:53.997Z,59.70
2022-08-29T16:15:21.909Z,59.70
2022-08-29T16:17:49.624Z,59.40
2022-08-29T16:20:17.512Z,59.10
2022-08-29T16:22:46.616Z,59.00
2022-08-29T16:25:15.145Z,59.00
2022-08-29T16:27:43.090Z,58.90
2022-08-29T16:30:11.998Z,58.60
2022-08-29T16:32:40.079Z,58.50
2022-08-29T16:35:09.008Z,58.40
2022-08-29T16:37:37.394Z,58.20
2022-08-29T16:40:07.659Z,58.20
2022-08-29T16:42:36.932Z,58.20
2022-08-29T16:45:06.054Z,58.10
2022-08-29T16:47:34.614Z,58.30
2022-08-29T16:50:03.750Z,58.40
2022-08-29T16:52:31.602Z,58.30
2022-08-29T16:54:59.523Z,58.20
2022-08-29T16:57:29.017Z,58.10
2022-08-29T16:59:56.777Z,58.00
2022-08-29T17:02:24.732Z,57.90
2022-08-29T17:04:52.541Z,57.90
2022-08-29T17:07:20.735Z,58.60
2022-08-29T17:09:47.452Z,58.20
2022-08-29T17:12:14.148Z,58.10
2022-08-29T17:14:44.326Z,58.20
2022-08-29T17:17:12.129Z,58.00
2022-08-29T17:19:39.968Z,58.00
2022-08-29T17:22:09.041Z,58.00
2022-08-29T17:24:36.777Z,57.80
2022-08-29T17:27:04.558Z,57.60
2022-08-29T17:29:32.296Z,57.50
2022-08-29T17:32:01.363Z,57.40
2022-08-29T17:34:29.141Z,57.30
2022-08-29T17:36:56.880Z,57.20
2022-08-29T17:39:24.634Z,57.10
2022-08-29T17:41:52.796Z,56.90
2022-08-29T17:44:20.675Z,56.80
2022-08-29T17:46:48.412Z,56.70
2022-08-29T17:49:17.653Z,56.50
2022-08-29T17:51:53.448Z,56.50
2022-08-29T17:54:22.885Z,56.40
2022-08-29T17:56:52.809Z,56.40
2022-08-29T17:59:22.032Z,56.40
2022-08-29T18:01:51.540Z,56.40
2022-08-29T18:04:22.023Z,56.30
2022-08-29T18:06:51.756Z,56.10
2022-08-29T18:09:21.234Z,55.80
2022-08-29T18:11:51.656Z,55.60
2022-08-29T18:14:22.542Z,55.30
2022-08-29T18:16:50.414Z,55.10
2022-08-29T18:19:21.142Z,54.80
2022-08-29T18:21:49.686Z,54.60
2022-08-29T18:24:18.273Z,54.40
2022-08-29T18:26:47.664Z,54.20
2022-08-29T18:29:16.314Z,54.00
2022-08-29T18:31:44.797Z,53.80
2022-08-29T18:34:13.625Z,53.70
2022-08-29T18:36:44.631Z,53.60
2022-08-29T18:39:13.861Z,53.50
2022-08-29T18:41:41.700Z,54.10
2022-08-29T18:44:10.149Z,53.30
2022-08-29T18:46:40.843Z,53.30
2022-08-29T18:49:09.033Z,53.30
2022-08-29T18:51:39.487Z,53.30
2022-08-29T18:54:09.505Z,53.20
2022-08-29T18:56:37.293Z,53.10
2022-08-29T18:59:05.327Z,53.10
2022-08-29T19:01:33.811Z,53.10
2022-08-29T19:04:03.196Z,53.00
2022-08-29T19:06:31.433Z,52.90
2022-08-29T19:09:00.017Z,52.90
2022-08-29T19:11:29.359Z,52.90
2022-08-29T19:13:57.143Z,53.00
2022-08-29T19:16:25.620Z,53.00
2022-08-29T19:18:53.465Z,53.00
2022-08-29T19:21:20.529Z,52.90
2022-08-29T19:23:51.973Z,52.90
2022-08-29T19:26:23.652Z,53.50
2022-08-29T19:28:55.415Z,52.80
2022-08-29T19:31:26.910Z,52.80
2022-08-29T19:33:54.681Z,52.90
2022-08-29T19:36:23.338Z,52.90
2022-08-29T19:38:51.156Z,53.00
2022-08-29T19:41:19.840Z,53.10
2022-08-29T19:43:47.708Z,53.20
2022-08-29T19:46:19.880Z,53.30
2022-08-29T19:48:50.983Z,53.30
2022-08-29T19:51:21.455Z,53.50
2022-08-29T19:53:49.991Z,53.50
2022-08-29T19:56:18.568Z,53.50
2022-08-29T19:58:46.366Z,53.40
2022-08-29T20:01:19.128Z,53.40
2022-08-29T20:03:46.953Z,53.40
2022-08-29T20:06:14.810Z,53.40
2022-08-29T20:08:46.530Z,53.40
2022-08-29T20:11:16.146Z,53.40
2022-08-29T20:13:50.533Z,53.40
2022-08-29T20:16:23.928Z,53.50
2022-08-29T20:18:52.304Z,53.60
2022-08-29T20:21:20.925Z,53.70
2022-08-29T20:23:54.746Z,53.70
2022-08-29T20:26:27.047Z,53.80
2022-08-29T20:28:55.686Z,53.90
2022-08-29T20:31:25.056Z,53.90
2022-08-29T20:33:53.295Z,53.90
2022-08-29T20:36:40.814Z,54.00
2022-08-29T20:39:10.604Z,54.00
2022-08-29T20:41:38.539Z,54.10
2022-08-29T20:44:09.540Z,54.10
2022-08-29T20:46:41.392Z,54.20
2022-08-29T20:49:09.636Z,54.30
2022-08-29T20:51:38.157Z,54.30
2022-08-29T20:54:06.740Z,54.40
2022-08-29T20:56:34.889Z,54.40
2022-08-29T20:59:02.607Z,54.40
2022-08-29T21:01:30.573Z,54.50
2022-08-29T21:04:20.922Z,54.60
2022-08-29T21:06:49.325Z,54.60
2022-08-29T21:09:17.097Z,54.70
2022-08-29T21:11:44.870Z,54.70
2022-08-29T21:14:12.825Z,54.80
2022-08-29T21:16:40.836Z,54.80
2022-08-29T21:19:09.974Z,54.80
2022-08-29T21:21:39.113Z,54.80
2022-08-29T21:24:08.675Z,54.90
2022-08-29T21:26:37.177Z,54.90
2022-08-29T21:29:05.674Z,54.90
2022-08-29T21:31:34.573Z,54.90
2022-08-29T21:34:06.765Z,54.90
2022-08-29T21:36:36.851Z,55.00
2022-08-29T21:39:06.829Z,55.00
2022-08-29T21:41:38.461Z,55.00
2022-08-29T21:44:06.333Z,55.00
2022-08-29T21:46:36.602Z,55.60
2022-08-29T21:49:06.681Z,55.00
2022-08-29T21:51:36.534Z,55.10
2022-08-29T21:54:05.161Z,55.10
2022-08-29T21:56:34.455Z,55.10
2022-08-29T21:59:03.713Z,55.10
2022-08-29T22:01:38.704Z,55.10
2022-08-29T22:04:08.373Z,55.20
2022-08-29T22:06:41.092Z,55.20
2022-08-29T22:09:10.128Z,55.20
2022-08-29T22:11:38.651Z,55.20
2022-08-29T22:14:07.744Z,55.20
2022-08-29T22:16:34.681Z,55.20
2022-08-29T22:19:05.121Z,55.30
2022-08-29T22:21:35.313Z,55.20
2022-08-29T22:24:05.274Z,55.30
2022-08-29T22:26:33.196Z,55.30
2022-08-29T22:29:01.978Z,55.30
2022-08-29T22:31:31.731Z,55.20
2022-08-29T22:33:59.674Z,55.30
2022-08-29T22:36:27.632Z,55.30
2022-08-29T22:38:56.761Z,55.90
2022-08-29T22:41:26.339Z,55.30
2022-08-29T22:44:19.801Z,55.30
2022-08-29T22:46:44.643Z,55.30
2022-08-29T22:49:12.489Z,55.30
2022-08-29T22:51:40.316Z,55.30
2022-08-29T22:54:25.509Z,55.30
2022-08-29T22:56:54.831Z,55.30
2022-08-29T22:59:23.066Z,55.30
2022-08-29T23:01:50.882Z,55.30
2022-08-29T23:04:19.012Z,55.30
2022-08-29T23:06:46.829Z,55.40
2022-08-29T23:09:14.600Z,55.30
2022-08-29T23:11:42.890Z,55.40
2022-08-29T23:14:12.735Z,55.40
2022-08-29T23:16:40.837Z,55.40
2022-08-29T23:19:09.025Z,55.50
2022-08-29T23:21:39.605Z,55.50
2022-08-29T23:24:08.982Z,55.50
2022-08-29T23:26:37.445Z,55.50
2022-08-29T23:29:05.984Z,55.50
2022-08-29T23:31:35.596Z,55.60
2022-08-29T23:34:03.368Z,55.60
2022-08-29T23:36:31.104Z,55.50
2022-08-29T23:38:58.827Z,55.60
2022-08-29T23:41:26.557Z,55.50
2022-08-29T23:43:54.287Z,55.50
2022-08-29T23:46:22.827Z,55.50
2022-08-29T23:48:52.254Z,55.50
2022-08-29T23:51:20.470Z,55.60
2022-08-29T23:53:48.812Z,55.50
2022-08-29T23:56:20.055Z,55.60
2022-08-29T23:58:48.406Z,55.60
